createdAt,value
2023-05-12T00:00:43.638Z,14.77
2023-05-12T00:01:43.515Z,14.78
2023-05-12T00:02:43.594Z,14.73
2023-05-12T00:03:43.741Z,14.71
2023-05-12T00:04:43.436Z,14.74
2023-05-12T00:05:43.400Z,14.85
2023-05-12T00:06:43.302Z,14.85
2023-05-12T20:14:38.689Z,14.79
2023-05-12T20:15:38.534Z,14.85
2023-05-12T20:16:38.565Z,14.79
2023-05-12T20:17:38.466Z,14.74
2023-05-12T20:18:38.421Z,14.68
2023-05-12T20:19:38.412Z,14.56
2023-05-12T20:20:38.307Z,14.52
2023-05-12T20:21:38.293Z,14.55
2023-05-12T20:22:38.180Z,14.58
2023-05-12T20:23:38.197Z,14.55
2023-05-12T20:24:38.197Z,14.53
2023-05-12T20:25:38.064Z,14.48
2023-05-12T20:26:38.068Z,14.45
2023-05-12T20:27:37.945Z,14.48
2023-05-12T20:28:37.946Z,14.45
2023-05-12T20:29:37.952Z,14.52
2023-05-12T20:30:37.853Z,14.49
2023-05-12T20:31:37.885Z,14.51
2023-05-12T20:32:37.808Z,14.44
2023-05-12T20:33:37.673Z,14.37
2023-05-12T20:34:37.638Z,14.52
2023-05-12T20:35:37.586Z,14.43
2023-05-12T20:36:37.557Z,14.48
2023-05-12T20:37:37.498Z,14.49
2023-05-12T20:38:37.460Z,14.45
2023-05-12T20:39:37.419Z,14.38
2023-05-12T20:40:37.379Z,14.36
2023-05-12T20:41:37.329Z,14.41
2023-05-12T20:42:37.287Z,14.44
2023-05-12T20:43:37.244Z,14.34
2023-05-12T20:44:37.196Z,14.36
2023-05-12T20:45:37.211Z,14.40
2023-05-12T20:46:38.470Z,14.31
2023-05-12T20:47:37.116Z,14.38
2023-05-12T20:48:37.032Z,14.34
2023-05-12T20:49:36.983Z,14.37
2023-05-12T20:50:36.943Z,14.33
2023-05-12T20:51:36.911Z,14.22
2023-05-12T20:52:36.862Z,14.28
2023-05-12T20:53:36.808Z,14.28
2023-05-12T20:54:36.774Z,14.26
2023-05-12T20:55:36.740Z,14.33
2023-05-12T20:56:36.685Z,14.26
2023-05-12T20:57:36.639Z,14.31
2023-05-12T20:59:36.558Z,14.22
2023-05-12T21:00:36.511Z,14.20
2023-05-12T21:01:36.494Z,14.18
2023-05-12T21:02:36.471Z,14.19
2023-05-12T21:03:36.428Z,14.22
2023-05-12T21:04:36.346Z,14.25
2023-05-12T21:05:36.303Z,14.19
2023-05-12T21:06:36.281Z,14.18
2023-05-12T21:07:36.215Z,14.15
2023-05-12T21:08:36.180Z,14.19
2023-05-12T21:09:36.133Z,14.13
2023-05-12T21:10:36.088Z,14.05
2023-05-12T21:11:36.040Z,14.12
2023-05-12T21:12:35.997Z,14.04
2023-05-12T21:13:35.956Z,14.03
2023-05-12T21:14:35.918Z,14.03
2023-05-12T21:15:35.872Z,14.04
2023-05-12T21:16:35.862Z,13.95
2023-05-12T21:17:35.830Z,13.89
2023-05-12T21:18:35.841Z,14.03
2023-05-12T21:19:35.711Z,13.94
2023-05-12T21:20:35.663Z,13.94
2023-05-12T21:21:35.611Z,13.94
2023-05-12T21:22:35.570Z,13.87
2023-05-12T21:23:35.527Z,13.87
2023-05-12T21:24:35.491Z,13.80
2023-05-12T21:25:35.443Z,13.82
2023-05-12T21:26:35.397Z,13.78
2023-05-12T21:27:35.358Z,13.80
2023-05-12T21:28:35.310Z,13.80
2023-05-12T21:29:35.272Z,13.75
2023-05-12T21:30:35.224Z,13.70
2023-05-12T21:31:35.282Z,13.76
2023-05-12T21:32:35.170Z,13.75
2023-05-12T21:33:35.101Z,13.71
2023-05-12T21:34:35.077Z,13.65
2023-05-12T21:35:35.019Z,13.64
2023-05-12T21:36:34.970Z,13.71
2023-05-12T21:37:34.934Z,13.62
2023-05-12T21:38:34.886Z,13.57
2023-05-12T21:39:34.841Z,13.61
2023-05-12T21:40:34.810Z,13.54
2023-05-12T21:41:34.755Z,13.52
2023-05-12T21:42:34.718Z,13.49
2023-05-12T21:43:34.673Z,13.52
2023-05-12T21:44:34.630Z,13.55
2023-05-12T21:45:34.587Z,13.58
2023-05-12T21:46:34.630Z,13.47
2023-05-12T21:47:34.571Z,13.49
2023-05-12T21:48:34.463Z,13.50
2023-05-12T21:49:34.415Z,13.47
2023-05-12T21:50:34.386Z,13.45
2023-05-12T21:51:34.339Z,13.39
2023-05-12T21:52:34.286Z,13.42
2023-05-12T21:53:34.244Z,13.40
2023-05-12T21:54:34.250Z,13.47
2023-05-12T21:55:34.159Z,13.42
2023-05-12T21:56:34.151Z,13.43
2023-05-12T21:57:34.105Z,13.40
2023-05-12T21:58:34.081Z,13.30
2023-05-12T21:59:34.006Z,13.31
2023-05-12T22:00:33.940Z,13.33
2023-05-12T22:01:33.945Z,13.37
2023-05-12T22:02:33.863Z,13.31
2023-05-12T22:03:33.845Z,13.28
